Terminal Aerodrome Forecast
Issued by NWS

Home | Current Version | Previous Version | Text Only | Print | Product List | Glossary Off
Versions: 1 2 3 4 5 6 7 8 9 10 11 12 13

000
FTUS43 KICT 201128
TAFSLN
TAF
KSLN 201128Z 2012/2112 19015G22KT P6SM FEW250
     FM202100 22012KT P6SM FEW250
     FM210700 27007KT P6SM FEW120
     FM211000 34007KT P6SM SCT100=

USA.gov is the U.S. government's official web portal to all federal, state and local government web resources and services.